Time;durP1;ratioP1;P1;durP2;ratioP2;P2;SDS_P1;SDS_P2;PMS_P1;PMS_P2;Temp;Humidity;BMP_temperature;BMP_pressure;BME280_temperature;BME280_humidity;BME280_pressure;Samples;Min_cycle;Max_cycle;Signal;HPM_P1;HPM_P2
2022/04/21 00:03:40;;;;;;;;;;;;;;;;;;4963735;29;19906;-58
2022/04/21 00:06:24;;;;;;;;;;;;;;;;;;4966917;29;19906;-58
2022/04/21 00:08:56;;;;;;;;;;;;;;;;;;4966136;29;19914;-58
2022/04/21 00:11:28;;;;;;;;;;;;;;;;;;4967352;29;20400;-58
2022/04/21 00:13:58;;;;;;;;;;;;;;;;;;4950412;29;19934;-58
2022/04/21 00:16:24;;;;;;;;;;;;;;;;;;4950452;29;19921;-58
2022/04/21 00:24:24;;;;;;;;;;;;;;;;;;4982963;28;19960;-58
2022/04/21 00:26:59;;;;;;;;;;;;;;;;;;5007529;28;19973;-58
2022/04/21 00:29:27;;;;;;;;;;;;;;;;;;5007239;28;19906;-58
2022/04/21 00:34:42;;;;;;;;;;;;;;;;;;5003682;28;19933;-58
2022/04/21 00:45:53;;;;;;;;;;;;;;;;;;4985093;28;19928;-58
2022/04/21 00:48:35;;;;;;;;;;;;;;;;;;4984763;28;19912;-58
2022/04/21 00:54:09;;;;;;;;;;;;;;;;;;4909315;29;19907;-60
2022/04/21 00:56:40;;;;;;;;;;;;;;;;;;4909374;29;19914;-58
2022/04/21 00:59:09;;;;;;;;;;;;;;;;;;4907809;29;19950;-58
2022/04/21 01:07:17;;;;;;;;;;;;;;;;;;5006685;28;20395;-58
2022/04/21 01:12:29;;;;;;;;;;;;;;;;;;5006063;28;20493;-58
2022/04/21 01:15:11;;;;;;;;;;;;;;;;;;5005514;28;19912;-58
2022/04/21 01:20:27;;;;;;;;;;;;;;;;;;5003393;28;19914;-58
2022/04/21 01:22:54;;;;;;;;;;;;;;;;;;5004778;28;19902;-58
2022/04/21 01:25:20;;;;;;;;;;;;;;;;;;5005992;28;19912;-58
2022/04/21 01:28:05;;;;;;;;;;;;;;;;;;5003483;28;19902;-58
2022/04/21 01:33:29;;;;;;;;;;;;;;;;;;5006149;28;19960;-57
2022/04/21 01:36:14;;;;;;;;;;;;;;;;;;;;;
2022/04/21 01:41:25;;;;;;;;;;;;;;;;;;5006275;28;19928;-58
2022/04/21 01:44:00;;;;;;;;;;;;;;;;;;5005362;28;19906;-58
2022/04/21 01:46:27;;;;;;;;;;;;;;;;;;5006273;28;20574;-58
2022/04/21 01:48:59;;;;;;;;;;;;;;;;;;5004746;28;19914;-58
2022/04/21 01:54:42;;;;;;;;;;;;;;;;;;4993521;28;19914;-58
2022/04/21 01:57:22;;;;;;;;;;;;;;;;;;5005707;28;20203;-58
2022/04/21 02:02:59;;;;;;;;;;;;;;;;;;5001296;28;19912;-60
2022/04/21 02:05:32;;;;;;;;;;;;;;;;;;5005713;28;19936;-58
2022/04/21 02:08:07;;;;;;;;;;;;;;;;;;5004502;28;20192;-58
2022/04/21 02:10:48;;;;;;;;;;;;;;;;;;5005229;28;20491;-58
2022/04/21 02:13:14;;;;;;;;;;;;;;;;;;5005021;28;19937;-58
2022/04/21 02:15:44;;;;;;;;;;;;;;;;;;5004953;28;19912;-58
2022/04/21 02:18:19;;;;;;;;;;;;;;;;;;4997720;28;19961;-58
2022/04/21 02:20:45;;;;;;;;;;;;;;;;;;5004935;28;20205;-58
2022/04/21 02:26:12;;;;;;;;;;;;;;;;;;4992732;28;19981;-58
2022/04/21 02:28:38;;;;;;;;;;;;;;;;;;5003314;28;19974;-60
2022/04/21 02:31:21;;;;;;;;;;;;;;;;;;5004760;28;20005;-58
2022/04/21 02:33:47;;;;;;;;;;;;;;;;;;5005003;28;19909;-58
2022/04/21 02:36:12;;;;;;;;;;;;;;;;;;5005098;28;19906;-58
2022/04/21 02:38:41;;;;;;;;;;;;;;;;;;5003117;28;19913;-58
2022/04/21 02:41:07;;;;;;;;;;;;;;;;;;5003946;28;20356;-58
2022/04/21 02:43:45;;;;;;;;;;;;;;;;;;5004747;28;19906;-58
2022/04/21 02:46:13;;;;;;;;;;;;;;;;;;5003263;28;20352;-58
2022/04/21 02:48:48;;;;;;;;;;;;;;;;;;5000397;28;19916;-58
2022/04/21 02:51:38;;;;;;;;;;;;;;;;;;5004993;28;19922;-58
2022/04/21 02:59:37;;;;;;;;;;;;;;;;;;5008661;28;19940;-58
2022/04/21 03:02:03;;;;;;;;;;;;;;;;;;5007505;28;19941;-58
2022/04/21 03:04:29;;;;;;;;;;;;;;;;;;5009385;28;19940;-58
2022/04/21 03:06:58;;;;;;;;;;;;;;;;;;5009018;28;19906;-58
2022/04/21 03:12:09;;;;;;;;;;;;;;;;;;5008118;28;19920;-58
2022/04/21 03:14:43;;;;;;;;;;;;;;;;;;5008910;28;19928;-58
2022/04/21 03:17:11;;;;;;;;;;;;;;;;;;5007829;28;19912;-58
2022/04/21 03:19:37;;;;;;;;;;;;;;;;;;5008017;28;19967;-57
2022/04/21 03:27:34;;;;;;;;;;;;;;;;;;4996493;28;19905;-57
2022/04/21 03:30:08;;;;;;;;;;;;;;;;;;5008033;28;19973;-58
2022/04/21 03:32:46;;;;;;;;;;;;;;;;;;4992764;28;20352;-57
2022/04/21 03:35:24;;;;;;;;;;;;;;;;;;4996074;28;20367;-58
2022/04/21 03:38:03;;;;;;;;;;;;;;;;;;4992889;28;20451;-58
2022/04/21 03:40:29;;;;;;;;;;;;;;;;;;4995487;28;20444;-58
2022/04/21 03:42:58;;;;;;;;;;;;;;;;;;4995854;28;19933;-58
2022/04/21 03:45:25;;;;;;;;;;;;;;;;;;4995418;28;19905;-58
2022/04/21 03:47:54;;;;;;;;;;;;;;;;;;4994486;28;19906;-58
2022/04/21 03:50:28;;;;;;;;;;;;;;;;;;4995415;28;19905;-57
2022/04/21 03:55:46;;;;;;;;;;;;;;;;;;4994154;28;19906;-58
2022/04/21 03:58:31;;;;;;;;;;;;;;;;;;4998045;28;19957;-57
2022/04/21 04:01:00;;;;;;;;;;;;;;;;;;4999188;28;19912;-57
2022/04/21 04:03:44;;;;;;;;;;;;;;;;;;4996915;28;19913;-57
2022/04/21 04:11:50;;;;;;;;;;;;;;;;;;4996467;28;19976;-58
2022/04/21 04:14:22;;;;;;;;;;;;;;;;;;4995610;28;19929;-58
2022/04/21 04:16:48;;;;;;;;;;;;;;;;;;4996726;28;19902;-58
2022/04/21 04:19:20;;;;;;;;;;;;;;;;;;4995812;28;19973;-58
2022/04/21 04:21:49;;;;;;;;;;;;;;;;;;4996319;28;20181;-58
2022/04/21 04:35:57;;;;;;;;;;;;;;;;;;4944160;28;19906;-58
2022/04/21 04:44:02;;;;;;;;;;;;;;;;;;5000499;28;19917;-59
2022/04/21 04:49:13;;;;;;;;;;;;;;;;;;5006523;28;19912;-58
2022/04/21 04:54:27;;;;;;;;;;;;;;;;;;4984887;28;19954;-58
2022/04/21 05:00:10;;;;;;;;;;;;;;;;;;;;;
2022/04/21 05:02:42;;;;;;;;;;;;;;;;;;4983239;28;19981;-58
2022/04/21 05:08:05;;;;;;;;;;;;;;;;;;5005361;28;19913;-58
2022/04/21 05:10:34;;;;;;;;;;;;;;;;;;5006555;28;19944;-58
2022/04/21 05:13:03;;;;;;;;;;;;;;;;;;5006079;28;19906;-59
2022/04/21 05:15:39;;;;;;;;;;;;;;;;;;5005608;28;19905;-58
2022/04/21 05:18:14;;;;;;;;;;;;;;;;;;4986161;28;19961;-58
2022/04/21 05:20:56;;;;;;;;;;;;;;;;;;5006328;28;19905;-58
2022/04/21 05:23:40;;;;;;;;;;;;;;;;;;5005532;28;20331;-57
2022/04/21 05:26:07;;;;;;;;;;;;;;;;;;5006206;28;19913;-58
2022/04/21 05:31:40;;;;;;;;;;;;;;;;;;5003264;28;19987;-58
2022/04/21 05:34:09;;;;;;;;;;;;;;;;;;5005873;28;19993;-58
2022/04/21 05:36:47;;;;;;;;;;;;;;;;;;;;;
2022/04/21 05:42:17;;;;;;;;;;;;;;;;;;5005321;28;20184;-58
2022/04/21 05:44:49;;;;;;;;;;;;;;;;;;5005609;28;19905;-58
2022/04/21 05:47:34;;;;;;;;;;;;;;;;;;5004726;28;19930;-58
2022/04/21 05:50:22;;;;;;;;;;;;;;;;;;;;;
2022/04/21 05:52:51;;;;;;;;;;;;;;;;;;5005479;28;19949;-58
2022/04/21 05:55:20;;;;;;;;;;;;;;;;;;5005502;28;19912;-58
2022/04/21 06:00:33;;;;;;;;;;;;;;;;;;5005690;28;19913;-58
2022/04/21 06:03:05;;;;;;;;;;;;;;;;;;5005216;28;19910;-58
2022/04/21 06:05:34;;;;;;;;;;;;;;;;;;5003689;28;19906;-58
2022/04/21 06:08:07;;;;;;;;;;;;;;;;;;5004291;28;19906;-58
2022/04/21 06:10:40;;;;;;;;;;;;;;;;;;5005226;28;19905;-58
2022/04/21 06:13:09;;;;;;;;;;;;;;;;;;5005128;28;19992;-58
2022/04/21 06:15:54;;;;;;;;;;;;;;;;;;5004713;28;20356;-58
2022/04/21 06:18:20;;;;;;;;;;;;;;;;;;5004092;28;19985;-58
2022/04/21 06:20:52;;;;;;;;;;;;;;;;;;5004655;28;19929;-58
2022/04/21 06:23:36;;;;;;;;;;;;;;;;;;5003119;28;20038;-58
2022/04/21 06:26:10;;;;;;;;;;;;;;;;;;5005198;28;19913;-58
2022/04/21 06:31:53;;;;;;;;;;;;;;;;;;;;;
2022/04/21 06:34:26;;;;;;;;;;;;;;;;;;4977209;28;19981;-58
2022/04/21 06:37:04;;;;;;;;;;;;;;;;;;5003821;28;19920;-58
2022/04/21 06:42:15;;;;;;;;;;;;;;;;;;5004608;28;20016;-59
2022/04/21 06:50:26;;;;;;;;;;;;;;;;;;5003866;28;19913;-59
2022/04/21 06:53:00;;;;;;;;;;;;;;;;;;5004948;28;19973;-58
2022/04/21 06:55:41;;;;;;;;;;;;;;;;;;5004482;28;20305;-58
2022/04/21 06:58:17;;;;;;;;;;;;;;;;;;5003708;28;19952;-58
2022/04/21 07:00:43;;;;;;;;;;;;;;;;;;5004787;28;19929;-58
2022/04/21 07:03:19;;;;;;;;;;;;;;;;;;;;;
2022/04/21 07:05:54;;;;;;;;;;;;;;;;;;5004318;28;20350;-59
2022/04/21 07:11:21;;;;;;;;;;;;;;;;;;5003565;28;20322;-58
2022/04/21 07:19:35;;;;;;;;;;;;;;;;;;4905105;29;19963;-59
2022/04/21 07:22:02;;;;;;;;;;;;;;;;;;4905843;29;19939;-59
2022/04/21 07:24:33;;;;;;;;;;;;;;;;;;4961654;28;19910;-58
2022/04/21 07:27:08;;;;;;;;;;;;;;;;;;5003303;28;19913;-58
2022/04/21 07:29:34;;;;;;;;;;;;;;;;;;5003805;28;19952;-58
2022/04/21 07:32:10;;;;;;;;;;;;;;;;;;;;;
2022/04/21 07:37:21;;;;;;;;;;;;;;;;;;5003307;28;19913;-59
2022/04/21 07:39:50;;;;;;;;;;;;;;;;;;5004164;28;19914;-59
2022/04/21 07:42:17;;;;;;;;;;;;;;;;;;5007206;28;19929;-59
2022/04/21 07:44:55;;;;;;;;;;;;;;;;;;;;;
2022/04/21 07:47:25;;;;;;;;;;;;;;;;;;4999253;28;20008;-59
2022/04/21 07:55:24;;;;;;;;;;;;;;;;;;5006694;28;19928;-58
2022/04/21 08:01:03;;;;;;;;;;;;;;;;;;4985631;28;19962;-58
2022/04/21 08:06:27;;;;;;;;;;;;;;;;;;5002379;28;19925;-59
2022/04/21 08:12:07;;;;;;;;;;;;;;;;;;4985217;28;19914;-58
2022/04/21 08:14:33;;;;;;;;;;;;;;;;;;4946416;29;19907;-59
2022/04/21 08:17:02;;;;;;;;;;;;;;;;;;4965370;29;19950;-58
2022/04/21 08:33:19;;;;;;;;;;;;;;;;;;5006226;28;20014;-59
2022/04/21 08:35:59;;;;;;;;;;;;;;;;;;5006950;28;19906;-58
2022/04/21 08:38:50;;;;;;;;;;;;;;;;;;;;;
2022/04/21 08:41:34;;;;;;;;;;;;;;;;;;5006090;28;20004;-59
2022/04/21 08:44:03;;;;;;;;;;;;;;;;;;5005867;28;19920;-59
2022/04/21 08:46:39;;;;;;;;;;;;;;;;;;;;;
2022/04/21 08:49:08;;;;;;;;;;;;;;;;;;5006187;28;20004;-59
2022/04/21 08:51:49;;;;;;;;;;;;;;;;;;5005709;28;19917;-59
2022/04/21 08:57:19;;;;;;;;;;;;;;;;;;5002574;28;19905;-58
2022/04/21 08:59:58;;;;;;;;;;;;;;;;;;5006342;28;20044;-58
2022/04/21 09:02:36;;;;;;;;;;;;;;;;;;;;;
2022/04/21 09:05:06;;;;;;;;;;;;;;;;;;5002984;28;19933;-58
2022/04/21 09:07:34;;;;;;;;;;;;;;;;;;5005434;28;20000;-59
2022/04/21 09:12:47;;;;;;;;;;;;;;;;;;5006352;28;19921;-59
2022/04/21 09:15:23;;;;;;;;;;;;;;;;;;5006436;28;19905;-58
2022/04/21 09:17:52;;;;;;;;;;;;;;;;;;5005131;28;19912;-59
2022/04/21 09:20:29;;;;;;;;;;;;;;;;;;;;;
2022/04/21 09:23:11;;;;;;;;;;;;;;;;;;5006118;28;19961;-58
2022/04/21 09:31:10;;;;;;;;;;;;;;;;;;5003951;28;19964;-59
2022/04/21 09:33:56;;;;;;;;;;;;;;;;;;5006052;28;19949;-59
2022/04/21 09:36:35;;;;;;;;;;;;;;;;;;5004468;28;19906;-59
2022/04/21 09:39:14;;;;;;;;;;;;;;;;;;;;;
2022/04/21 09:41:44;;;;;;;;;;;;;;;;;;5003100;28;20004;-58
2022/04/21 09:46:56;;;;;;;;;;;;;;;;;;4980451;28;19968;-59
2022/04/21 09:49:42;;;;;;;;;;;;;;;;;;4960275;28;19946;-59
2022/04/21 09:52:13;;;;;;;;;;;;;;;;;;4967267;28;19918;-59
2022/04/21 09:54:45;;;;;;;;;;;;;;;;;;4983339;28;19910;-59
2022/04/21 09:57:24;;;;;;;;;;;;;;;;;;4982805;28;20256;-59
2022/04/21 10:00:05;;;;;;;;;;;;;;;;;;4983416;28;19906;-59
2022/04/21 10:02:42;;;;;;;;;;;;;;;;;;;;;
2022/04/21 10:05:20;;;;;;;;;;;;;;;;;;4983221;28;20017;-59
2022/04/21 10:08:04;;;;;;;;;;;;;;;;;;4982918;28;19905;-58
2022/04/21 10:10:34;;;;;;;;;;;;;;;;;;4967111;28;19941;-59
2022/04/21 10:13:18;;;;;;;;;;;;;;;;;;4982397;28;19914;-59
2022/04/21 10:18:37;;;;;;;;;;;;;;;;;;5003075;28;19905;-59
2022/04/21 10:21:06;;;;;;;;;;;;;;;;;;5004463;28;19906;-58
2022/04/21 10:23:51;;;;;;;;;;;;;;;;;;5004374;28;19937;-58
2022/04/21 10:26:23;;;;;;;;;;;;;;;;;;5004849;28;19917;-59
2022/04/21 10:28:55;;;;;;;;;;;;;;;;;;5003409;28;19992;-59
2022/04/21 10:31:40;;;;;;;;;;;;;;;;;;;;;
2022/04/21 10:34:10;;;;;;;;;;;;;;;;;;4994378;28;19912;-58
2022/04/21 10:39:43;;;;;;;;;;;;;;;;;;4990469;28;19952;-59
2022/04/21 10:42:15;;;;;;;;;;;;;;;;;;4987660;28;19910;-59
2022/04/21 10:44:59;;;;;;;;;;;;;;;;;;4994080;28;20272;-59
2022/04/21 10:47:34;;;;;;;;;;;;;;;;;;4993480;28;20420;-59
2022/04/21 10:50:20;;;;;;;;;;;;;;;;;;;;;
2022/04/21 11:04:00;;;;;;;;;;;;;;;;;;4982282;28;20300;-59
2022/04/21 11:06:30;;;;;;;;;;;;;;;;;;4993548;28;19995;-59
2022/04/21 11:08:56;;;;;;;;;;;;;;;;;;4993170;28;20635;-59
2022/04/21 11:11:37;;;;;;;;;;;;;;;;;;4993428;28;19917;-59
2022/04/21 11:14:03;;;;;;;;;;;;;;;;;;4993734;28;19960;-59
2022/04/21 11:19:27;;;;;;;;;;;;;;;;;;4996767;28;19905;-59
2022/04/21 11:24:52;;;;;;;;;;;;;;;;;;4997875;28;20369;-59
2022/04/21 11:30:24;;;;;;;;;;;;;;;;;;4996503;28;19906;-59
2022/04/21 11:32:51;;;;;;;;;;;;;;;;;;4997215;28;19936;-58
2022/04/21 11:38:15;;;;;;;;;;;;;;;;;;4996424;28;20376;-58
2022/04/21 11:40:55;;;;;;;;;;;;;;;;;;4996198;28;19953;-58
2022/04/21 11:43:31;;;;;;;;;;;;;;;;;;;;;
2022/04/21 11:48:46;;;;;;;;;;;;;;;;;;4996685;28;19913;-58
2022/04/21 11:51:28;;;;;;;;;;;;;;;;;;;;;
2022/04/21 11:56:55;;;;;;;;;;;;;;;;;;4974660;28;19910;-59
2022/04/21 11:59:41;;;;;;;;;;;;;;;;;;4974107;28;20384;-59
2022/04/21 12:07:52;;;;;;;;;;;;;;;;;;;;;
2022/04/21 12:10:30;;;;;;;;;;;;;;;;;;4994436;28;19996;-59
2022/04/21 12:18:30;;;;;;;;;;;;;;;;;;4998036;28;19944;-59
2022/04/21 12:21:02;;;;;;;;;;;;;;;;;;4996226;28;19906;-59
2022/04/21 12:23:35;;;;;;;;;;;;;;;;;;4995025;28;20267;-59
2022/04/21 12:28:56;;;;;;;;;;;;;;;;;;4991875;28;19902;-59
2022/04/21 12:34:21;;;;;;;;;;;;;;;;;;4974263;28;20337;-59
2022/04/21 12:36:54;;;;;;;;;;;;;;;;;;4959963;28;20388;-59
2022/04/21 12:42:25;;;;;;;;;;;;;;;;;;;;;
2022/04/21 12:44:53;;;;;;;;;;;;;;;;;;4977121;28;19906;-59
2022/04/21 12:47:29;;;;;;;;;;;;;;;;;;;;;
2022/04/21 12:50:00;;;;;;;;;;;;;;;;;;4995757;28;20271;-59
2022/04/21 12:55:15;;;;;;;;;;;;;;;;;;4973315;28;19933;-59
2022/04/21 12:58:09;;;;;;;;;;;;;;;;;;;;;
2022/04/21 13:00:30;;;;;;;;;;;;;;;;;;4994529;28;19913;-59
2022/04/21 13:07:04;;;;;;;;;;;;;;;;;;4973356;28;19945;-59
2022/04/21 13:08:56;;;;;;;;;;;;;;;;;;4954574;28;19902;-60
2022/04/21 13:14:19;;;;;;;;;;;;;;;;;;;;;
2022/04/21 13:16:45;;;;;;;;;;;;;;;;;;4995808;28;20323;-59
2022/04/21 13:22:03;;;;;;;;;;;;;;;;;;4994124;28;19913;-60
2022/04/21 13:27:28;;;;;;;;;;;;;;;;;;4994591;28;20422;-59
2022/04/21 13:30:07;;;;;;;;;;;;;;;;;;4993213;28;20006;-59
2022/04/21 13:35:19;;;;;;;;;;;;;;;;;;4995153;28;19920;-60
2022/04/21 13:37:48;;;;;;;;;;;;;;;;;;4993737;28;19910;-59
2022/04/21 13:43:12;;;;;;;;;;;;;;;;;;4995035;28;19906;-59
2022/04/21 13:45:51;;;;;;;;;;;;;;;;;;;;;
2022/04/21 13:48:24;;;;;;;;;;;;;;;;;;4994391;28;20113;-60
2022/04/21 13:51:10;;;;;;;;;;;;;;;;;;;;;
2022/04/21 13:53:42;;;;;;;;;;;;;;;;;;4992735;28;19916;-59
2022/04/21 13:56:13;;;;;;;;;;;;;;;;;;4994774;28;19910;-59
2022/04/21 14:01:38;;;;;;;;;;;;;;;;;;;;;
2022/04/21 14:04:04;;;;;;;;;;;;;;;;;;4994825;28;20209;-59
2022/04/21 14:06:31;;;;;;;;;;;;;;;;;;4994888;28;20248;-59
2022/04/21 14:09:00;;;;;;;;;;;;;;;;;;4993940;28;20328;-59
2022/04/21 14:14:23;;;;;;;;;;;;;;;;;;;;;
2022/04/21 14:19:38;;;;;;;;;;;;;;;;;;4990277;28;19906;-59
2022/04/21 14:25:06;;;;;;;;;;;;;;;;;;4994666;28;19945;-60
2022/04/21 14:27:48;;;;;;;;;;;;;;;;;;;;;
2022/04/21 14:30:14;;;;;;;;;;;;;;;;;;4994089;28;19989;-59
2022/04/21 14:32:49;;;;;;;;;;;;;;;;;;4994571;28;20368;-59
2022/04/21 14:35:17;;;;;;;;;;;;;;;;;;4991969;28;20340;-59
2022/04/21 14:46:01;;;;;;;;;;;;;;;;;;4994996;28;19978;-59
2022/04/21 14:48:37;;;;;;;;;;;;;;;;;;4993122;28;19910;-59
2022/04/21 14:51:04;;;;;;;;;;;;;;;;;;4992422;28;20331;-59
2022/04/21 14:53:43;;;;;;;;;;;;;;;;;;4991633;28;19942;-59
2022/04/21 14:56:14;;;;;;;;;;;;;;;;;;4992431;28;20268;-60
2022/04/21 15:01:38;;;;;;;;;;;;;;;;;;4993419;28;20430;-59
2022/04/21 15:04:17;;;;;;;;;;;;;;;;;;4993946;28;20276;-59
2022/04/21 15:06:50;;;;;;;;;;;;;;;;;;4993801;28;19901;-59
2022/04/21 15:09:16;;;;;;;;;;;;;;;;;;4993111;28;19996;-60
2022/04/21 15:14:39;;;;;;;;;;;;;;;;;;;;;
2022/04/21 15:17:08;;;;;;;;;;;;;;;;;;4952206;29;20438;-60
2022/04/21 15:19:36;;;;;;;;;;;;;;;;;;4975177;28;19906;-59
2022/04/21 15:25:09;;;;;;;;;;;;;;;;;;4993460;28;19906;-59
2022/04/21 15:27:57;;;;;;;;;;;;;;;;;;4991357;28;20324;-59
2022/04/21 15:30:36;;;;;;;;;;;;;;;;;;4993009;28;19953;-59
2022/04/21 15:33:01;;;;;;;;;;;;;;;;;;4992852;28;20337;-59
2022/04/21 15:35:45;;;;;;;;;;;;;;;;;;4991592;28;20387;-59
2022/04/21 15:38:24;;;;;;;;;;;;;;;;;;4990495;28;19960;-59
2022/04/21 15:43:54;;;;;;;;;;;;;;;;;;4994114;28;19906;-59
2022/04/21 15:49:23;;;;;;;;;;;;;;;;;;4992990;28;19913;-59
2022/04/21 15:52:02;;;;;;;;;;;;;;;;;;4993941;28;19916;-59
2022/04/21 15:59:58;;;;;;;;;;;;;;;;;;4993317;28;20023;-59
2022/04/21 16:02:27;;;;;;;;;;;;;;;;;;4994897;28;19937;-59
2022/04/21 16:04:59;;;;;;;;;;;;;;;;;;4996876;28;19997;-59
2022/04/21 16:10:18;;;;;;;;;;;;;;;;;;4995104;28;19964;-59
2022/04/21 16:12:50;;;;;;;;;;;;;;;;;;4995152;28;20360;-59
2022/04/21 16:18:05;;;;;;;;;;;;;;;;;;4995574;28;19960;-60
2022/04/21 16:20:33;;;;;;;;;;;;;;;;;;4996419;28;19960;-59
2022/04/21 16:23:03;;;;;;;;;;;;;;;;;;4996349;28;19905;-59
2022/04/21 16:28:15;;;;;;;;;;;;;;;;;;4991655;28;19905;-59
2022/04/21 16:30:54;;;;;;;;;;;;;;;;;;4998351;28;19913;-59
2022/04/21 16:36:05;;;;;;;;;;;;;;;;;;5007330;28;20188;-59
2022/04/21 16:38:34;;;;;;;;;;;;;;;;;;5005324;28;19973;-59
2022/04/21 16:43:54;;;;;;;;;;;;;;;;;;5006703;28;19925;-59
2022/04/21 16:46:27;;;;;;;;;;;;;;;;;;5006763;28;19940;-59
2022/04/21 16:48:53;;;;;;;;;;;;;;;;;;4983587;28;19906;-59
2022/04/21 16:51:37;;;;;;;;;;;;;;;;;;5004602;28;19916;-59
2022/04/21 16:54:09;;;;;;;;;;;;;;;;;;5006680;28;19990;-59
2022/04/21 16:56:35;;;;;;;;;;;;;;;;;;5005374;28;19905;-59
2022/04/21 17:07:17;;;;;;;;;;;;;;;;;;5005647;28;19964;-60
2022/04/21 17:12:48;;;;;;;;;;;;;;;;;;;;;
2022/04/21 17:15:24;;;;;;;;;;;;;;;;;;5005400;28;19973;-59
2022/04/21 17:18:09;;;;;;;;;;;;;;;;;;5005334;28;19941;-59
2022/04/21 17:20:40;;;;;;;;;;;;;;;;;;5005332;28;19960;-59
2022/04/21 17:23:09;;;;;;;;;;;;;;;;;;5005368;28;20263;-59
2022/04/21 17:25:41;;;;;;;;;;;;;;;;;;5003490;28;19905;-59
2022/04/21 17:28:10;;;;;;;;;;;;;;;;;;5004479;28;19913;-59
2022/04/21 17:30:53;;;;;;;;;;;;;;;;;;5005710;28;19906;-59
2022/04/21 17:33:26;;;;;;;;;;;;;;;;;;5005854;28;19949;-60
2022/04/21 17:35:58;;;;;;;;;;;;;;;;;;5004281;28;19914;-59
2022/04/21 17:38:30;;;;;;;;;;;;;;;;;;5004590;28;19906;-60
2022/04/21 17:40:56;;;;;;;;;;;;;;;;;;5003277;28;19906;-58
2022/04/21 17:49:19;;;;;;;;;;;;;;;;;;4991623;28;19906;-58
2022/04/21 17:51:51;;;;;;;;;;;;;;;;;;5005523;28;19909;-57
2022/04/21 17:54:24;;;;;;;;;;;;;;;;;;5005345;28;20398;-58
2022/04/21 17:57:00;;;;;;;;;;;;;;;;;;5003952;28;19960;-58
2022/04/21 17:59:26;;;;;;;;;;;;;;;;;;5003680;28;19977;-58
2022/04/21 18:01:56;;;;;;;;;;;;;;;;;;5005366;28;19905;-58
2022/04/21 18:04:32;;;;;;;;;;;;;;;;;;5004847;28;19941;-59
2022/04/21 18:06:59;;;;;;;;;;;;;;;;;;4992593;28;19913;-59
2022/04/21 18:09:34;;;;;;;;;;;;;;;;;;5004211;28;19910;-59
2022/04/21 18:12:21;;;;;;;;;;;;;;;;;;5003444;28;19910;-59
2022/04/21 18:15:01;;;;;;;;;;;;;;;;;;5004317;28;19909;-59
2022/04/21 18:17:30;;;;;;;;;;;;;;;;;;5003629;28;19993;-59
2022/04/21 18:20:02;;;;;;;;;;;;;;;;;;5004281;28;19906;-59
2022/04/21 18:22:28;;;;;;;;;;;;;;;;;;5004315;28;19909;-59
2022/04/21 18:25:07;;;;;;;;;;;;;;;;;;5003592;28;20308;-59
2022/04/21 18:27:36;;;;;;;;;;;;;;;;;;5003953;28;19981;-59
2022/04/21 18:32:55;;;;;;;;;;;;;;;;;;5004560;28;19977;-58
2022/04/21 18:35:30;;;;;;;;;;;;;;;;;;5003861;28;19910;-59
2022/04/21 18:40:51;;;;;;;;;;;;;;;;;;5000468;28;19905;-59
2022/04/21 18:46:10;;;;;;;;;;;;;;;;;;5000130;28;20253;-59
2022/04/21 18:51:45;;;;;;;;;;;;;;;;;;5002177;28;19909;-59
2022/04/21 18:57:18;;;;;;;;;;;;;;;;;;5004764;28;19928;-59
2022/04/21 18:59:50;;;;;;;;;;;;;;;;;;5004016;28;19930;-59
2022/04/21 19:02:29;;;;;;;;;;;;;;;;;;5004561;28;19925;-59
2022/04/21 19:10:41;;;;;;;;;;;;;;;;;;5004291;28;19932;-60
2022/04/21 19:16:05;;;;;;;;;;;;;;;;;;4993940;28;19910;-60
2022/04/21 19:24:06;;;;;;;;;;;;;;;;;;5004581;28;20056;-60
2022/04/21 19:29:27;;;;;;;;;;;;;;;;;;5003143;28;19912;-59
2022/04/21 19:37:56;;;;;;;;;;;;;;;;;;4974223;28;20006;-60
2022/04/21 19:40:22;;;;;;;;;;;;;;;;;;4997433;28;19905;-59
2022/04/21 19:45:45;;;;;;;;;;;;;;;;;;4997498;28;19906;-60
2022/04/21 19:48:25;;;;;;;;;;;;;;;;;;4996308;28;19917;-60
2022/04/21 19:53:39;;;;;;;;;;;;;;;;;;5002384;28;19916;-59
2022/04/21 19:56:24;;;;;;;;;;;;;;;;;;;;;
2022/04/21 19:58:52;;;;;;;;;;;;;;;;;;4994623;28;20278;-60
2022/04/21 20:04:29;;;;;;;;;;;;;;;;;;;;;
2022/04/21 20:09:57;;;;;;;;;;;;;;;;;;4996716;28;20002;-60
2022/04/21 20:15:09;;;;;;;;;;;;;;;;;;4996799;28;19928;-59
2022/04/21 20:17:50;;;;;;;;;;;;;;;;;;4994695;28;20358;-60
2022/04/21 20:23:27;;;;;;;;;;;;;;;;;;4996709;28;19916;-60
2022/04/21 20:31:24;;;;;;;;;;;;;;;;;;4990037;28;19910;-60
2022/04/21 20:33:56;;;;;;;;;;;;;;;;;;5005694;28;19910;-60
2022/04/21 20:36:24;;;;;;;;;;;;;;;;;;5006515;28;19912;-60
2022/04/21 20:39:06;;;;;;;;;;;;;;;;;;5004444;28;19906;-59
2022/04/21 20:41:32;;;;;;;;;;;;;;;;;;5004620;28;19933;-60
2022/04/21 20:44:11;;;;;;;;;;;;;;;;;;5005941;28;19937;-60
2022/04/21 20:46:43;;;;;;;;;;;;;;;;;;5006046;28;19906;-59
2022/04/21 20:54:40;;;;;;;;;;;;;;;;;;5001332;28;19913;-59
2022/04/21 20:58:01;;;;;;;;;;;;;;;;;;;;;
2022/04/21 21:00:08;;;;;;;;;;;;;;;;;;;;;
2022/04/21 21:02:35;;;;;;;;;;;;;;;;;;5012875;28;20311;-60
2022/04/21 21:05:17;;;;;;;;;;;;;;;;;;5025177;28;19905;-60
2022/04/21 21:07:48;;;;;;;;;;;;;;;;;;5024718;28;19944;-60
2022/04/21 21:16:04;;;;;;;;;;;;;;;;;;4995431;28;20004;-60
2022/04/21 21:18:48;;;;;;;;;;;;;;;;;;5025256;28;19912;-60
2022/04/21 21:21:27;;;;;;;;;;;;;;;;;;5026109;28;19911;-60
2022/04/21 21:23:56;;;;;;;;;;;;;;;;;;5026088;28;20000;-59
2022/04/21 21:29:09;;;;;;;;;;;;;;;;;;5025155;28;19956;-59
2022/04/21 21:31:48;;;;;;;;;;;;;;;;;;;;;
2022/04/21 21:34:23;;;;;;;;;;;;;;;;;;5026312;28;19941;-60
2022/04/21 21:40:03;;;;;;;;;;;;;;;;;;4983680;28;19912;-59
2022/04/21 21:45:28;;;;;;;;;;;;;;;;;;5005212;28;19916;-59
2022/04/21 21:48:06;;;;;;;;;;;;;;;;;;5024547;28;19905;-60
2022/04/21 21:53:22;;;;;;;;;;;;;;;;;;5025369;28;20534;-59
2022/04/21 21:58:56;;;;;;;;;;;;;;;;;;5015389;28;20022;-59
2022/04/21 22:01:38;;;;;;;;;;;;;;;;;;;;;
2022/04/21 22:04:08;;;;;;;;;;;;;;;;;;5025260;28;19945;-59
2022/04/21 22:09:36;;;;;;;;;;;;;;;;;;4982891;28;19989;-59
2022/04/21 22:12:12;;;;;;;;;;;;;;;;;;4983685;28;19933;-59
2022/04/21 22:17:30;;;;;;;;;;;;;;;;;;4982825;28;20374;-59
2022/04/21 22:20:00;;;;;;;;;;;;;;;;;;4996146;28;19941;-60
2022/04/21 22:22:38;;;;;;;;;;;;;;;;;;5025500;28;20051;-59
2022/04/21 22:25:10;;;;;;;;;;;;;;;;;;5024703;28;20419;-60
2022/04/21 22:36:10;;;;;;;;;;;;;;;;;;5025047;28;19911;-60
2022/04/21 22:41:38;;;;;;;;;;;;;;;;;;4988449;28;19914;-60
2022/04/21 22:47:00;;;;;;;;;;;;;;;;;;5003368;28;19906;-60
2022/04/21 22:49:29;;;;;;;;;;;;;;;;;;5001436;28;19906;-59
2022/04/21 22:52:08;;;;;;;;;;;;;;;;;;;;;
2022/04/21 22:54:44;;;;;;;;;;;;;;;;;;5023348;28;19948;-60
2022/04/21 22:57:10;;;;;;;;;;;;;;;;;;5024105;28;19913;-61
2022/04/21 22:59:52;;;;;;;;;;;;;;;;;;5024957;28;19905;-60
2022/04/21 23:02:18;;;;;;;;;;;;;;;;;;5025262;28;19917;-59
2022/04/21 23:07:39;;;;;;;;;;;;;;;;;;5023508;28;19912;-60
2022/04/21 23:15:45;;;;;;;;;;;;;;;;;;5028792;28;20008;-60
2022/04/21 23:18:55;;;;;;;;;;;;;;;;;;;;;
2022/04/21 23:21:25;;;;;;;;;;;;;;;;;;5025087;28;19913;-59
2022/04/21 23:24:08;;;;;;;;;;;;;;;;;;5027916;28;19913;-60
2022/04/21 23:26:47;;;;;;;;;;;;;;;;;;5009763;28;19905;-59
2022/04/21 23:29:22;;;;;;;;;;;;;;;;;;5027759;28;19906;-59
2022/04/21 23:32:00;;;;;;;;;;;;;;;;;;5025142;28;19937;-60
2022/04/21 23:34:42;;;;;;;;;;;;;;;;;;5027026;28;19932;-60
2022/04/21 23:37:17;;;;;;;;;;;;;;;;;;5027928;28;19905;-60
2022/04/21 23:42:28;;;;;;;;;;;;;;;;;;5028446;28;19969;-60
2022/04/21 23:45:01;;;;;;;;;;;;;;;;;;5028233;28;19905;-59
2022/04/21 23:47:27;;;;;;;;;;;;;;;;;;5026197;28;19909;-59
2022/04/21 23:52:48;;;;;;;;;;;;;;;;;;;;;
2022/04/21 23:55:24;;;;;;;;;;;;;;;;;;5026594;28;20007;-60
2022/04/21 23:58:06;;;;;;;;;;;;;;;;;;5026280;28;20326;-60
